createdAt,value
2019-03-17T00:00:14.783Z,0
2019-03-17T00:01:17.121Z,0
2019-03-17T00:02:19.152Z,0
2019-03-17T00:03:21.187Z,0
2019-03-17T00:04:33.150Z,0
2019-03-17T00:05:35.201Z,0
2019-03-17T00:06:37.235Z,0
2019-03-17T00:07:39.276Z,0
2019-03-17T00:08:41.316Z,0
2019-03-17T00:09:43.631Z,0
2019-03-17T00:10:45.760Z,0
2019-03-17T00:11:47.789Z,0
2019-03-17T00:12:50.121Z,0
2019-03-17T00:13:52.171Z,0
2019-03-17T00:15:07.687Z,0
2019-03-17T00:16:09.741Z,0
2019-03-17T00:17:12.072Z,0
2019-03-17T00:18:14.143Z,0
2019-03-17T00:19:16.163Z,0
2019-03-17T00:20:18.210Z,0
2019-03-17T00:21:20.821Z,0
2019-03-17T00:22:23.124Z,0
2019-03-17T00:23:25.175Z,0
2019-03-17T00:24:27.205Z,0
2019-03-17T00:25:29.255Z,0
2019-03-17T00:26:31.336Z,0
2019-03-17T00:27:33.463Z,0
2019-03-17T00:28:35.499Z,0
2019-03-17T00:29:37.820Z,0
2019-03-17T00:30:39.865Z,0
2019-03-17T00:31:42.168Z,0
2019-03-17T00:32:44.500Z,0
2019-03-17T00:33:46.615Z,0
2019-03-17T00:34:51.833Z,0
2019-03-17T00:35:54.152Z,0
2019-03-17T00:36:56.189Z,0
2019-03-17T00:37:58.525Z,0
2019-03-17T00:39:00.570Z,0
2019-03-17T00:40:02.633Z,0
2019-03-17T00:41:04.675Z,0
2019-03-17T00:42:06.993Z,0
2019-03-17T00:43:09.020Z,0
2019-03-17T00:44:11.067Z,0
2019-03-17T00:45:13.341Z,0
2019-03-17T00:46:15.383Z,0
2019-03-17T00:47:17.724Z,0
2019-03-17T00:48:19.741Z,0
2019-03-17T00:49:22.068Z,0
2019-03-17T00:50:24.110Z,0
2019-03-17T00:51:26.166Z,0
2019-03-17T00:52:28.187Z,0
2019-03-17T00:53:30.248Z,0
2019-03-17T00:54:32.289Z,0
2019-03-17T00:55:34.605Z,0
2019-03-17T00:56:36.659Z,0
2019-03-17T00:57:38.691Z,0
2019-03-17T00:58:41.020Z,0
2019-03-17T00:59:43.123Z,0
2019-03-17T01:00:45.210Z,0
2019-03-17T01:01:47.240Z,0
2019-03-17T01:02:49.285Z,0
2019-03-17T01:03:51.629Z,0
2019-03-17T01:04:58.067Z,0
2019-03-17T01:06:00.149Z,0
2019-03-17T01:07:02.572Z,0
2019-03-17T01:08:04.610Z,0
2019-03-17T01:09:06.650Z,0
2019-03-17T01:10:08.687Z,0
2019-03-17T01:11:10.719Z,0
2019-03-17T01:12:12.763Z,0
2019-03-17T01:13:14.796Z,0
2019-03-17T01:14:16.840Z,0
2019-03-17T01:15:18.880Z,0
2019-03-17T01:16:20.904Z,0
2019-03-17T01:17:23.346Z,0
2019-03-17T01:18:25.379Z,0
2019-03-17T01:19:27.420Z,0
2019-03-17T01:20:29.473Z,0
2019-03-17T01:21:31.497Z,0
2019-03-17T01:22:33.817Z,0
2019-03-17T01:23:35.852Z,0
2019-03-17T01:24:38.206Z,0
2019-03-17T01:25:40.785Z,0
2019-03-17T01:26:42.840Z,0
2019-03-17T01:27:44.882Z,0
2019-03-17T01:28:46.912Z,0
2019-03-17T01:29:48.962Z,0
2019-03-17T01:30:51.374Z,0
2019-03-17T01:31:53.404Z,0
2019-03-17T01:32:55.433Z,0
2019-03-17T01:33:57.480Z,0
2019-03-17T01:35:11.690Z,0
2019-03-17T01:36:13.721Z,0
2019-03-17T01:37:16.063Z,0
2019-03-17T01:38:18.099Z,0
2019-03-17T01:39:20.436Z,0
2019-03-17T01:40:22.503Z,0
2019-03-17T01:41:24.908Z,0
2019-03-17T01:42:27.220Z,0
2019-03-17T01:43:29.533Z,0
2019-03-17T01:44:31.565Z,0
2019-03-17T01:45:33.606Z,0
2019-03-17T01:46:36.025Z,0
2019-03-17T01:47:38.117Z,0
2019-03-17T01:48:40.155Z,0
2019-03-17T01:49:42.209Z,0
2019-03-17T01:50:44.229Z,0
2019-03-17T01:51:46.268Z,0
2019-03-17T01:52:48.590Z,0
2019-03-17T01:53:50.625Z,0
2019-03-17T01:54:52.676Z,0
2019-03-17T01:55:54.705Z,0
2019-03-17T01:56:56.744Z,0
2019-03-17T01:57:58.785Z,0
2019-03-17T01:59:00.846Z,0
2019-03-17T02:00:03.187Z,0
2019-03-17T02:01:05.234Z,0
2019-03-17T02:02:07.275Z,0
2019-03-17T02:03:09.296Z,0
2019-03-17T02:04:11.343Z,0
2019-03-17T02:05:23.970Z,0
2019-03-17T02:06:26.099Z,0
2019-03-17T02:07:28.700Z,0
2019-03-17T02:08:30.743Z,0
2019-03-17T02:09:33.055Z,0
2019-03-17T02:10:35.088Z,0
2019-03-17T02:11:37.134Z,0
2019-03-17T02:12:39.545Z,0
2019-03-17T02:13:41.860Z,0
2019-03-17T02:14:44.192Z,0
2019-03-17T02:15:46.229Z,0
2019-03-17T02:16:48.539Z,0
2019-03-17T02:17:50.572Z,0
2019-03-17T02:18:52.677Z,0
2019-03-17T02:19:54.737Z,0
2019-03-17T02:20:56.779Z,0
2019-03-17T02:21:58.809Z,0
2019-03-17T02:23:01.120Z,0
2019-03-17T02:24:03.745Z,0
2019-03-17T02:25:05.779Z,0
2019-03-17T02:26:07.809Z,0
2019-03-17T02:27:09.836Z,0
2019-03-17T02:28:11.881Z,0
2019-03-17T02:29:13.906Z,0
2019-03-17T02:30:15.973Z,0
2019-03-17T02:31:18.005Z,0
2019-03-17T02:32:20.169Z,0
2019-03-17T02:33:23.535Z,0
2019-03-17T02:34:26.155Z,0
2019-03-17T02:35:41.747Z,0
2019-03-17T02:36:43.782Z,0
2019-03-17T02:37:46.827Z,0
2019-03-17T02:38:49.270Z,0
2019-03-17T02:39:51.341Z,0
2019-03-17T02:40:54.322Z,0
2019-03-17T02:41:56.651Z,0
2019-03-17T02:42:58.718Z,0
2019-03-17T02:44:00.799Z,0
2019-03-17T02:45:03.287Z,0
2019-03-17T02:46:05.615Z,0
2019-03-17T02:47:07.666Z,0
2019-03-17T02:48:10.028Z,0
2019-03-17T02:49:12.103Z,0
2019-03-17T02:50:14.711Z,0
2019-03-17T02:51:17.058Z,0
2019-03-17T02:52:19.429Z,0
2019-03-17T02:53:21.478Z,0
2019-03-17T02:54:23.603Z,0
2019-03-17T02:55:25.713Z,0
2019-03-17T02:56:27.775Z,0
2019-03-17T02:57:29.827Z,0
2019-03-17T02:58:31.869Z,0
2019-03-17T02:59:34.302Z,0
2019-03-17T03:00:36.745Z,0
2019-03-17T03:01:38.794Z,0
2019-03-17T03:02:41.250Z,0
2019-03-17T03:03:43.292Z,0
2019-03-17T03:04:45.946Z,0
2019-03-17T03:05:57.868Z,0
2019-03-17T03:06:59.922Z,0
2019-03-17T03:08:01.954Z,0
2019-03-17T03:09:04.429Z,0
2019-03-17T03:10:06.854Z,0
2019-03-17T03:11:09.760Z,0
2019-03-17T03:12:12.810Z,0
2019-03-17T03:13:15.454Z,0
2019-03-17T03:14:17.522Z,0
2019-03-17T03:15:19.565Z,0
2019-03-17T03:16:22.016Z,0
2019-03-17T03:17:24.396Z,0
2019-03-17T03:18:26.432Z,0
2019-03-17T03:19:28.769Z,0
2019-03-17T03:20:31.121Z,0
2019-03-17T03:21:33.159Z,0
2019-03-17T03:22:35.485Z,0
2019-03-17T03:23:37.553Z,0
2019-03-17T03:24:39.584Z,0
2019-03-17T03:25:41.633Z,0
2019-03-17T03:26:43.970Z,0
2019-03-17T03:27:46.005Z,0
2019-03-17T03:28:48.347Z,0
2019-03-17T03:29:51.130Z,0
2019-03-17T03:30:53.873Z,0
2019-03-17T03:31:56.388Z,0
2019-03-17T03:32:58.522Z,0
2019-03-17T03:34:01.394Z,0
2019-03-17T03:35:04.622Z,0
2019-03-17T03:36:13.233Z,0
2019-03-17T03:37:15.305Z,0
2019-03-17T03:38:17.731Z,0
2019-03-17T03:39:19.806Z,0
2019-03-17T03:40:21.842Z,0
2019-03-17T03:41:24.379Z,0
2019-03-17T03:42:26.429Z,0
2019-03-17T03:43:28.491Z,0
2019-03-17T03:44:30.838Z,0
2019-03-17T03:45:33.207Z,0
2019-03-17T03:46:35.256Z,0
2019-03-17T03:47:37.691Z,0
2019-03-17T03:48:40.302Z,0
2019-03-17T03:49:43.017Z,0
2019-03-17T03:50:45.086Z,0
2019-03-17T03:51:47.117Z,0
2019-03-17T03:52:49.212Z,0
2019-03-17T03:53:51.537Z,0
2019-03-17T03:54:53.595Z,0
2019-03-17T03:55:55.947Z,0
2019-03-17T03:56:58.025Z,0
2019-03-17T03:58:00.081Z,0
2019-03-17T03:59:02.423Z,0
2019-03-17T04:00:04.785Z,0
2019-03-17T04:01:07.384Z,0
2019-03-17T04:02:09.428Z,0
2019-03-17T04:03:12.724Z,0
2019-03-17T04:04:15.329Z,0
2019-03-17T04:05:17.402Z,0
2019-03-17T04:06:28.402Z,0
2019-03-17T04:07:31.055Z,0
2019-03-17T04:08:33.108Z,0
2019-03-17T04:09:35.447Z,0
2019-03-17T04:10:37.502Z,0
2019-03-17T04:11:39.573Z,0
2019-03-17T04:12:42.123Z,0
2019-03-17T04:13:44.202Z,0
2019-03-17T04:14:46.244Z,0
2019-03-17T04:15:48.976Z,0
2019-03-17T04:16:51.021Z,0
2019-03-17T04:17:54.414Z,0
2019-03-17T04:18:56.484Z,0
2019-03-17T04:19:58.913Z,0
2019-03-17T04:21:01.244Z,0
2019-03-17T04:22:03.974Z,0
2019-03-17T04:23:06.409Z,0
2019-03-17T04:24:08.767Z,0
2019-03-17T04:25:11.403Z,0
2019-03-17T04:26:13.719Z,0
2019-03-17T04:27:15.762Z,0
2019-03-17T04:28:18.429Z,0
2019-03-17T04:29:20.502Z,0
2019-03-17T04:30:23.700Z,0
2019-03-17T04:31:25.732Z,0
2019-03-17T04:32:27.760Z,0
2019-03-17T04:33:29.801Z,0
2019-03-17T04:34:31.867Z,0
2019-03-17T04:35:33.918Z,0
2019-03-17T04:36:41.934Z,0
2019-03-17T04:37:43.986Z,0
2019-03-17T04:38:46.515Z,0
2019-03-17T04:39:48.563Z,0
2019-03-17T04:40:50.911Z,0
2019-03-17T04:41:52.934Z,0
2019-03-17T04:42:54.968Z,0
2019-03-17T04:43:57.000Z,0
2019-03-17T04:44:59.435Z,0
2019-03-17T04:46:01.475Z,0
2019-03-17T04:47:03.516Z,0
2019-03-17T04:48:05.547Z,0
2019-03-17T04:49:07.594Z,0
2019-03-17T04:50:09.949Z,0
2019-03-17T04:51:12.023Z,0
2019-03-17T04:52:14.054Z,0
2019-03-17T04:53:16.080Z,0
2019-03-17T04:54:18.426Z,0
2019-03-17T04:55:20.528Z,0
2019-03-17T04:56:22.561Z,0
2019-03-17T04:57:24.618Z,0
2019-03-17T04:58:26.643Z,0
2019-03-17T04:59:28.686Z,0
2019-03-17T05:00:30.718Z,0
2019-03-17T05:01:32.843Z,0
2019-03-17T05:02:34.881Z,0
2019-03-17T05:03:36.908Z,0
2019-03-17T05:04:38.939Z,0
2019-03-17T05:05:40.966Z,0
2019-03-17T05:06:54.333Z,0
2019-03-17T05:07:56.378Z,0
2019-03-17T05:08:58.414Z,0
2019-03-17T05:10:00.605Z,0
2019-03-17T05:11:02.742Z,0
2019-03-17T05:12:05.156Z,0
2019-03-17T05:13:07.200Z,0
2019-03-17T05:14:09.322Z,0
2019-03-17T05:15:11.648Z,0
2019-03-17T05:16:13.692Z,0
2019-03-17T05:17:15.731Z,0
2019-03-17T05:18:17.781Z,0
2019-03-17T05:19:20.088Z,0
2019-03-17T05:20:22.126Z,0
2019-03-17T05:21:24.161Z,0
2019-03-17T05:22:26.193Z,0
2019-03-17T05:23:28.240Z,0
2019-03-17T05:24:30.260Z,0
2019-03-17T05:25:32.314Z,1
2019-03-17T05:26:34.341Z,1
2019-03-17T05:27:36.386Z,1
2019-03-17T05:28:38.418Z,1
2019-03-17T05:29:40.457Z,1
2019-03-17T05:30:42.510Z,1
2019-03-17T05:31:44.527Z,1
2019-03-17T05:32:46.853Z,1
2019-03-17T05:33:49.270Z,1
2019-03-17T05:34:51.293Z,1
2019-03-17T05:35:53.610Z,1
2019-03-17T05:37:08.072Z,1
2019-03-17T05:38:10.130Z,1
2019-03-17T05:39:12.453Z,2
2019-03-17T05:40:14.496Z,2
2019-03-17T05:41:16.539Z,2
2019-03-17T05:42:18.577Z,2
2019-03-17T05:43:20.599Z,2
2019-03-17T05:44:22.642Z,2
2019-03-17T05:45:24.672Z,2
2019-03-17T05:46:27.005Z,2
2019-03-17T05:47:29.042Z,2
2019-03-17T05:48:31.063Z,2
2019-03-17T05:49:33.117Z,2
2019-03-17T05:50:35.156Z,2
2019-03-17T05:51:37.598Z,2
2019-03-17T05:52:39.625Z,3
2019-03-17T05:53:41.784Z,3
2019-03-17T05:54:43.831Z,4
2019-03-17T05:55:46.175Z,4
2019-03-17T05:56:48.215Z,4
2019-03-17T05:57:50.314Z,5
2019-03-17T05:58:52.341Z,5
2019-03-17T05:59:54.376Z,7
2019-03-17T06:00:56.428Z,8
2019-03-17T06:01:58.453Z,9
2019-03-17T06:03:00.493Z,10
2019-03-17T06:04:02.547Z,10
2019-03-17T06:05:04.565Z,12
2019-03-17T06:06:06.619Z,14
2019-03-17T06:07:20.266Z,14
2019-03-17T06:08:22.352Z,14
2019-03-17T06:09:24.390Z,13
2019-03-17T06:10:26.426Z,12
2019-03-17T06:11:28.456Z,11
2019-03-17T06:12:30.893Z,10
2019-03-17T06:13:32.994Z,11
2019-03-17T06:14:35.297Z,12
2019-03-17T06:15:37.730Z,13
2019-03-17T06:16:40.712Z,14
2019-03-17T06:17:42.771Z,15
2019-03-17T06:18:45.075Z,14
2019-03-17T06:19:47.669Z,12
2019-03-17T06:20:49.714Z,11
2019-03-17T06:21:51.731Z,11
2019-03-17T06:22:53.770Z,11
2019-03-17T06:23:55.798Z,12
2019-03-17T06:24:58.553Z,12
2019-03-17T06:26:00.585Z,12
2019-03-17T06:27:02.631Z,12
2019-03-17T06:28:04.662Z,13
2019-03-17T06:29:06.698Z,13
2019-03-17T06:30:09.025Z,12
2019-03-17T06:31:11.096Z,12
2019-03-17T06:32:13.411Z,11
2019-03-17T06:33:15.831Z,9
2019-03-17T06:34:17.884Z,7
2019-03-17T06:35:19.911Z,7
2019-03-17T06:36:22.032Z,8
2019-03-17T06:37:32.546Z,8
2019-03-17T06:38:34.567Z,7
2019-03-17T06:39:36.613Z,9
2019-03-17T06:40:38.661Z,10
2019-03-17T06:41:40.695Z,12
2019-03-17T06:42:42.732Z,12
2019-03-17T06:43:44.773Z,13
2019-03-17T06:44:47.085Z,13
2019-03-17T06:45:49.123Z,10
2019-03-17T06:46:51.172Z,11
2019-03-17T06:47:53.194Z,11
2019-03-17T06:48:55.230Z,12
2019-03-17T06:49:57.279Z,12
2019-03-17T06:50:59.315Z,11
2019-03-17T06:52:01.368Z,13
2019-03-17T06:53:03.425Z,13
2019-03-17T06:54:05.460Z,13
2019-03-17T06:55:07.505Z,13
2019-03-17T06:56:09.618Z,13
2019-03-17T06:57:11.740Z,15
2019-03-17T06:58:13.842Z,13
2019-03-17T06:59:19.615Z,13
2019-03-17T07:00:21.747Z,12
2019-03-17T07:01:24.579Z,10
2019-03-17T07:02:26.718Z,9
2019-03-17T07:03:28.823Z,6
2019-03-17T07:04:30.952Z,5
2019-03-17T07:05:33.070Z,4
2019-03-17T07:06:35.191Z,5
2019-03-17T07:07:46.329Z,5
2019-03-17T07:08:48.886Z,8
2019-03-17T07:09:51.008Z,7
2019-03-17T07:10:53.128Z,8
2019-03-17T07:11:55.363Z,9
2019-03-17T07:12:57.470Z,8
2019-03-17T07:13:59.959Z,7
2019-03-17T07:15:02.384Z,9
2019-03-17T07:16:04.532Z,9
2019-03-17T07:17:06.639Z,13
2019-03-17T07:18:08.783Z,10
2019-03-17T07:19:10.891Z,9
2019-03-17T07:20:13.037Z,10
2019-03-17T07:21:15.172Z,10
2019-03-17T07:22:17.302Z,9
2019-03-17T07:23:19.407Z,6
2019-03-17T07:24:21.952Z,6
2019-03-17T07:25:24.088Z,9
2019-03-17T07:26:26.209Z,8
2019-03-17T07:27:28.350Z,8
2019-03-17T07:28:30.446Z,8
2019-03-17T07:29:32.582Z,6
2019-03-17T07:30:34.710Z,6
2019-03-17T07:31:37.124Z,7
2019-03-17T07:32:39.244Z,8
2019-03-17T07:33:41.361Z,8
2019-03-17T07:34:43.502Z,8
2019-03-17T07:35:47.839Z,9
2019-03-17T07:36:49.977Z,6
2019-03-17T07:37:58.573Z,8
2019-03-17T07:39:13.649Z,7
2019-03-17T07:40:16.095Z,9
2019-03-17T07:41:18.218Z,12
2019-03-17T07:42:20.344Z,11
2019-03-17T07:43:22.455Z,13
2019-03-17T07:44:24.568Z,15
2019-03-17T07:45:27.085Z,10
2019-03-17T07:46:29.201Z,7
2019-03-17T07:47:31.321Z,11
2019-03-17T07:48:33.476Z,11
2019-03-17T07:49:35.652Z,13
2019-03-17T07:50:37.846Z,12
2019-03-17T07:51:39.979Z,10
2019-03-17T07:52:42.099Z,14
2019-03-17T07:53:44.216Z,15
2019-03-17T07:54:46.341Z,13
2019-03-17T07:55:48.883Z,14
2019-03-17T07:56:50.994Z,16
2019-03-17T07:57:53.136Z,15
2019-03-17T07:58:55.261Z,16
2019-03-17T07:59:57.384Z,18
2019-03-17T08:01:02.476Z,14
2019-03-17T08:02:04.670Z,18
2019-03-17T08:03:07.073Z,22
2019-03-17T08:04:09.197Z,16
2019-03-17T08:05:12.024Z,19
2019-03-17T08:06:14.429Z,23
2019-03-17T08:07:19.617Z,19
2019-03-17T08:08:22.356Z,19
2019-03-17T08:09:24.809Z,20
2019-03-17T08:10:27.293Z,26
2019-03-17T08:11:29.708Z,23
2019-03-17T08:12:31.829Z,21
2019-03-17T08:13:34.240Z,20
2019-03-17T08:14:36.340Z,17
2019-03-17T08:15:38.509Z,15
2019-03-17T08:16:40.627Z,14
2019-03-17T08:17:43.045Z,11
2019-03-17T08:18:45.486Z,13
2019-03-17T08:19:47.652Z,13
2019-03-17T08:20:49.771Z,12
2019-03-17T08:21:51.903Z,13
2019-03-17T08:22:54.023Z,14
2019-03-17T08:23:56.418Z,19
2019-03-17T08:24:58.934Z,15
2019-03-17T08:26:01.045Z,13
2019-03-17T08:27:03.166Z,14
2019-03-17T08:28:05.592Z,14
2019-03-17T08:29:07.718Z,12
2019-03-17T08:30:10.116Z,12
2019-03-17T08:31:12.267Z,11
2019-03-17T08:32:14.375Z,11
2019-03-17T08:33:16.773Z,12
2019-03-17T08:34:18.900Z,11
2019-03-17T08:35:21.005Z,11
2019-03-17T08:36:23.418Z,11
2019-03-17T08:37:25.543Z,8
2019-03-17T08:38:27.957Z,9
2019-03-17T08:39:30.130Z,9
2019-03-17T08:40:32.946Z,9
2019-03-17T08:41:38.607Z,10
2019-03-17T08:42:40.717Z,10
2019-03-17T08:43:55.831Z,12
2019-03-17T08:44:58.317Z,13
2019-03-17T08:46:00.468Z,12
2019-03-17T08:47:02.596Z,13
2019-03-17T08:48:05.046Z,11
2019-03-17T08:49:07.172Z,15
2019-03-17T08:50:09.306Z,16
2019-03-17T08:51:11.425Z,15
2019-03-17T08:52:13.566Z,13
2019-03-17T08:53:15.690Z,11
2019-03-17T08:54:17.814Z,7
2019-03-17T08:55:20.250Z,5
2019-03-17T08:56:22.374Z,5
2019-03-17T08:57:24.502Z,7
2019-03-17T08:58:26.672Z,12
2019-03-17T08:59:28.817Z,13
2019-03-17T09:00:30.951Z,13
2019-03-17T09:01:33.106Z,10
2019-03-17T09:02:35.227Z,9
2019-03-17T09:03:37.642Z,10
2019-03-17T09:04:40.062Z,10
2019-03-17T09:05:42.460Z,10
2019-03-17T09:06:44.578Z,14
2019-03-17T09:07:46.795Z,15
2019-03-17T09:08:49.007Z,15
2019-03-17T09:09:51.154Z,15
2019-03-17T09:10:53.560Z,16
2019-03-17T09:11:56.083Z,18
2019-03-17T09:12:58.667Z,17
2019-03-17T09:14:00.878Z,21
2019-03-17T09:15:03.599Z,17
2019-03-17T09:16:05.712Z,15
2019-03-17T09:17:16.365Z,17
2019-03-17T09:18:18.478Z,21
2019-03-17T09:19:21.001Z,24
2019-03-17T09:20:23.115Z,28
2019-03-17T09:21:25.269Z,30
2019-03-17T09:22:27.660Z,30
2019-03-17T09:23:29.791Z,29
2019-03-17T09:24:31.923Z,26
2019-03-17T09:25:34.031Z,25
2019-03-17T09:26:36.166Z,22
2019-03-17T09:27:38.285Z,22
2019-03-17T09:28:40.418Z,23
2019-03-17T09:29:42.578Z,22
2019-03-17T09:30:44.720Z,20
2019-03-17T09:31:47.157Z,20
2019-03-17T09:32:49.323Z,20
2019-03-17T09:33:51.441Z,21
2019-03-17T09:34:53.552Z,24
2019-03-17T09:35:55.683Z,24
2019-03-17T09:36:57.817Z,26
2019-03-17T09:38:00.010Z,25
2019-03-17T09:39:02.154Z,23
2019-03-17T09:40:04.278Z,24
2019-03-17T09:41:06.399Z,26
2019-03-17T09:42:11.665Z,26
2019-03-17T09:43:13.789Z,28
2019-03-17T09:44:16.295Z,35
2019-03-17T09:45:18.424Z,41
2019-03-17T09:46:20.851Z,39
2019-03-17T09:47:23.015Z,33
2019-03-17T09:48:25.140Z,31
2019-03-17T09:49:27.272Z,29
2019-03-17T09:50:29.383Z,27
2019-03-17T09:51:31.519Z,27
2019-03-17T09:52:33.931Z,31
2019-03-17T09:53:36.337Z,37
2019-03-17T09:54:38.448Z,41
2019-03-17T09:55:40.579Z,44
2019-03-17T09:56:42.693Z,45
2019-03-17T09:57:45.144Z,46
2019-03-17T09:58:47.610Z,49
2019-03-17T09:59:49.715Z,57
2019-03-17T10:00:51.836Z,56
2019-03-17T10:01:54.278Z,50
2019-03-17T10:02:56.787Z,41
2019-03-17T10:03:58.907Z,35
2019-03-17T10:05:01.212Z,40
2019-03-17T10:06:03.365Z,40
2019-03-17T10:07:06.066Z,37
2019-03-17T10:08:08.180Z,38
2019-03-17T10:09:10.298Z,41
2019-03-17T10:10:12.441Z,41
2019-03-17T10:11:14.560Z,36
2019-03-17T10:12:16.710Z,32
2019-03-17T10:13:19.149Z,31
2019-03-17T10:14:21.252Z,28
2019-03-17T10:15:23.434Z,28
2019-03-17T10:16:25.552Z,30
2019-03-17T10:17:27.669Z,30
2019-03-17T10:18:29.775Z,31
2019-03-17T10:19:31.909Z,34
2019-03-17T10:20:34.019Z,36
2019-03-17T10:21:36.442Z,37
2019-03-17T10:22:41.224Z,38
2019-03-17T10:23:43.623Z,42
2019-03-17T10:24:45.760Z,46
2019-03-17T10:25:48.168Z,48
2019-03-17T10:26:50.322Z,46
2019-03-17T10:27:52.430Z,45
2019-03-17T10:28:54.567Z,45
2019-03-17T10:29:56.693Z,39
2019-03-17T10:30:59.124Z,37
2019-03-17T10:32:01.286Z,37
2019-03-17T10:33:04.081Z,37
2019-03-17T10:34:06.580Z,37
2019-03-17T10:35:08.710Z,36
2019-03-17T10:36:10.825Z,37
2019-03-17T10:37:12.941Z,36
2019-03-17T10:38:15.355Z,42
2019-03-17T10:39:17.478Z,43
2019-03-17T10:40:20.446Z,40
2019-03-17T10:41:22.584Z,44
2019-03-17T10:42:24.707Z,41
2019-03-17T10:43:26.831Z,34
2019-03-17T10:44:28.982Z,37
2019-03-17T10:45:31.439Z,45
2019-03-17T10:46:33.875Z,45
2019-03-17T10:47:35.990Z,45
2019-03-17T10:48:38.127Z,50
2019-03-17T10:49:40.247Z,57
2019-03-17T10:50:51.194Z,54
2019-03-17T10:51:53.303Z,56
2019-03-17T10:52:55.442Z,55
2019-03-17T10:53:57.549Z,50
2019-03-17T10:54:59.674Z,41
2019-03-17T10:56:01.821Z,39
2019-03-17T10:57:03.932Z,44
2019-03-17T10:58:06.409Z,46
2019-03-17T10:59:08.540Z,49
2019-03-17T11:00:10.683Z,43
2019-03-17T11:01:12.784Z,37
2019-03-17T11:02:14.926Z,33
2019-03-17T11:03:17.326Z,33
2019-03-17T11:04:19.488Z,29
2019-03-17T11:05:21.632Z,32
2019-03-17T11:06:23.753Z,35
2019-03-17T11:07:25.874Z,37
2019-03-17T11:08:28.317Z,38
2019-03-17T11:09:30.451Z,30
2019-03-17T11:10:32.569Z,37
2019-03-17T11:11:34.704Z,40
2019-03-17T11:12:36.818Z,48
2019-03-17T11:13:38.945Z,53
2019-03-17T11:14:41.089Z,50
2019-03-17T11:15:43.521Z,46
2019-03-17T11:16:45.632Z,40
2019-03-17T11:17:47.876Z,37
2019-03-17T11:18:50.363Z,37
2019-03-17T11:19:52.563Z,37
2019-03-17T11:20:54.691Z,33
2019-03-17T11:21:56.923Z,29
2019-03-17T11:22:59.052Z,31
2019-03-17T11:24:01.182Z,24
2019-03-17T11:25:03.610Z,22
2019-03-17T11:26:05.752Z,25
2019-03-17T11:27:07.876Z,27
2019-03-17T11:28:09.998Z,34
2019-03-17T11:29:12.499Z,33
2019-03-17T11:30:14.613Z,31
2019-03-17T11:31:17.139Z,39
2019-03-17T11:32:19.266Z,41
2019-03-17T11:33:21.978Z,46
2019-03-17T11:34:24.090Z,48
2019-03-17T11:35:26.238Z,49
2019-03-17T11:36:28.429Z,56
2019-03-17T11:37:30.570Z,61
2019-03-17T11:38:32.714Z,57
2019-03-17T11:39:39.813Z,53
2019-03-17T11:40:41.942Z,47
2019-03-17T11:41:44.076Z,52
2019-03-17T11:42:49.290Z,56
2019-03-17T11:43:51.951Z,57
2019-03-17T11:44:54.076Z,57
2019-03-17T11:45:56.213Z,55
2019-03-17T11:46:58.696Z,57
2019-03-17T11:48:00.857Z,59
2019-03-17T11:49:02.991Z,61
2019-03-17T11:50:05.128Z,72
2019-03-17T11:51:07.670Z,70
2019-03-17T11:52:09.866Z,102
2019-03-17T11:53:11.982Z,96
2019-03-17T11:54:14.121Z,94
2019-03-17T11:55:16.347Z,88
2019-03-17T11:56:18.492Z,71
2019-03-17T11:57:20.623Z,102
2019-03-17T11:58:22.785Z,87
2019-03-17T11:59:24.899Z,72
2019-03-17T12:00:27.412Z,72
2019-03-17T12:01:29.566Z,85
2019-03-17T12:02:31.706Z,92
2019-03-17T12:03:33.844Z,77
2019-03-17T12:04:35.986Z,65
2019-03-17T12:05:38.524Z,42
2019-03-17T12:06:40.698Z,30
2019-03-17T12:07:42.923Z,32
2019-03-17T12:08:45.032Z,35
2019-03-17T12:09:51.890Z,29
2019-03-17T12:10:54.023Z,22
2019-03-17T12:11:56.132Z,24
2019-03-17T12:12:58.356Z,32
2019-03-17T12:14:00.483Z,43
2019-03-17T12:15:03.187Z,46
2019-03-17T12:16:05.409Z,46
2019-03-17T12:17:07.557Z,50
2019-03-17T12:18:09.681Z,45
2019-03-17T12:19:11.822Z,45
2019-03-17T12:20:13.946Z,64
2019-03-17T12:21:16.065Z,80
2019-03-17T12:22:18.503Z,84
2019-03-17T12:23:20.649Z,79
2019-03-17T12:24:22.783Z,74
2019-03-17T12:25:24.949Z,81
2019-03-17T12:26:27.079Z,92
2019-03-17T12:27:29.496Z,131
2019-03-17T12:28:31.632Z,102
2019-03-17T12:29:33.760Z,92
2019-03-17T12:30:35.908Z,94
2019-03-17T12:31:38.016Z,91
2019-03-17T12:32:40.166Z,86
2019-03-17T12:33:42.274Z,91
2019-03-17T12:34:44.431Z,93
2019-03-17T12:35:46.872Z,92
2019-03-17T12:36:49.001Z,91
2019-03-17T12:37:51.143Z,91
2019-03-17T12:38:53.264Z,93
2019-03-17T12:40:04.559Z,86
2019-03-17T12:41:06.702Z,88
2019-03-17T12:42:08.812Z,93
2019-03-17T12:43:10.944Z,92
2019-03-17T12:44:13.075Z,97
2019-03-17T12:45:15.218Z,96
2019-03-17T12:46:17.358Z,107
2019-03-17T12:47:19.485Z,104
2019-03-17T12:48:21.600Z,118
2019-03-17T12:49:24.003Z,112
2019-03-17T12:50:26.434Z,99
2019-03-17T12:51:28.947Z,93
2019-03-17T12:52:31.086Z,91
2019-03-17T12:53:33.500Z,99
2019-03-17T12:54:35.626Z,95
2019-03-17T12:55:37.750Z,107
2019-03-17T12:56:39.904Z,93
2019-03-17T12:57:42.022Z,90
2019-03-17T12:58:44.183Z,87
2019-03-17T12:59:46.306Z,82
2019-03-17T13:00:49.015Z,86
2019-03-17T13:01:51.433Z,83
2019-03-17T13:02:53.572Z,89
2019-03-17T13:03:55.704Z,87
2019-03-17T13:04:57.821Z,112
2019-03-17T13:05:59.971Z,98
2019-03-17T13:07:02.409Z,98
2019-03-17T13:08:04.822Z,92
2019-03-17T13:09:07.275Z,123
2019-03-17T13:10:17.833Z,121
2019-03-17T13:11:20.379Z,114
2019-03-17T13:12:22.512Z,85
2019-03-17T13:13:24.928Z,96
2019-03-17T13:14:27.337Z,77
2019-03-17T13:15:29.496Z,73
2019-03-17T13:16:31.623Z,70
2019-03-17T13:17:33.768Z,88
2019-03-17T13:18:35.923Z,63
2019-03-17T13:19:38.045Z,66
2019-03-17T13:20:40.180Z,69
2019-03-17T13:21:42.346Z,84
2019-03-17T13:22:44.474Z,77
2019-03-17T13:23:46.590Z,81
2019-03-17T13:24:48.716Z,101
2019-03-17T13:25:51.137Z,119
2019-03-17T13:26:53.669Z,98
2019-03-17T13:27:55.807Z,89
2019-03-17T13:28:58.604Z,69
2019-03-17T13:30:00.900Z,91
2019-03-17T13:31:03.047Z,145
2019-03-17T13:32:05.173Z,101
2019-03-17T13:33:07.306Z,77
2019-03-17T13:34:10.002Z,66
2019-03-17T13:35:12.182Z,67
2019-03-17T13:36:14.318Z,55
2019-03-17T13:37:16.451Z,41
2019-03-17T13:38:18.596Z,35
2019-03-17T13:39:20.707Z,34
2019-03-17T13:40:31.430Z,35
2019-03-17T13:41:33.847Z,37
2019-03-17T13:42:35.979Z,38
2019-03-17T13:43:38.139Z,29
2019-03-17T13:44:40.284Z,32
2019-03-17T13:45:42.420Z,35
2019-03-17T13:46:44.550Z,31
2019-03-17T13:47:46.712Z,27
2019-03-17T13:48:49.411Z,22
2019-03-17T13:49:51.561Z,20
2019-03-17T13:50:53.689Z,28
2019-03-17T13:51:56.095Z,38
2019-03-17T13:52:58.225Z,30
2019-03-17T13:54:00.652Z,25
2019-03-17T13:55:02.783Z,19
2019-03-17T13:56:05.201Z,13
2019-03-17T13:57:07.318Z,13
2019-03-17T13:58:09.742Z,13
2019-03-17T13:59:11.885Z,12
2019-03-17T14:00:14.744Z,9
2019-03-17T14:01:16.883Z,7
2019-03-17T14:02:19.083Z,6
2019-03-17T14:03:21.481Z,7
2019-03-17T14:04:23.639Z,6
2019-03-17T14:05:25.773Z,7
2019-03-17T14:06:27.918Z,9
2019-03-17T14:07:30.053Z,8
2019-03-17T14:08:32.163Z,8
2019-03-17T14:09:36.870Z,9
2019-03-17T14:10:42.840Z,13
2019-03-17T14:11:45.258Z,31
2019-03-17T14:12:47.410Z,79
2019-03-17T14:13:49.536Z,88
2019-03-17T14:14:51.663Z,120
2019-03-17T14:15:54.172Z,98
2019-03-17T14:16:56.320Z,139
2019-03-17T14:17:58.428Z,68
2019-03-17T14:19:00.557Z,58
2019-03-17T14:20:02.978Z,68
2019-03-17T14:21:05.144Z,89
2019-03-17T14:22:07.630Z,65
2019-03-17T14:23:09.760Z,66
2019-03-17T14:24:11.884Z,62
2019-03-17T14:25:14.069Z,87
2019-03-17T14:26:16.209Z,77
2019-03-17T14:27:18.348Z,65
2019-03-17T14:28:20.865Z,57
2019-03-17T14:29:22.984Z,46
2019-03-17T14:30:25.123Z,39
2019-03-17T14:31:27.254Z,34
2019-03-17T14:32:29.672Z,32
2019-03-17T14:33:31.798Z,35
2019-03-17T14:34:33.922Z,40
2019-03-17T14:35:36.347Z,48
2019-03-17T14:36:38.766Z,58
2019-03-17T14:37:40.901Z,88
2019-03-17T14:38:43.040Z,143
2019-03-17T14:39:45.169Z,146
2019-03-17T14:40:58.398Z,88
2019-03-17T14:42:00.921Z,72
2019-03-17T14:43:03.052Z,66
2019-03-17T14:44:05.182Z,130
2019-03-17T14:45:07.301Z,114
2019-03-17T14:46:09.447Z,70
2019-03-17T14:47:11.558Z,41
2019-03-17T14:48:13.676Z,61
2019-03-17T14:49:15.886Z,49
2019-03-17T14:50:18.062Z,75
2019-03-17T14:51:20.200Z,116
2019-03-17T14:52:22.316Z,120
2019-03-17T14:53:24.439Z,122
2019-03-17T14:54:26.844Z,98
2019-03-17T14:55:29.263Z,54
2019-03-17T14:56:31.673Z,50
2019-03-17T14:57:34.075Z,39
2019-03-17T14:58:36.500Z,32
2019-03-17T14:59:38.617Z,29
2019-03-17T15:00:40.739Z,24
2019-03-17T15:01:42.885Z,19
2019-03-17T15:02:45.079Z,14
2019-03-17T15:03:47.202Z,14
2019-03-17T15:04:49.452Z,11
2019-03-17T15:05:51.574Z,11